Time;durP1;ratioP1;P1;durP2;ratioP2;P2;SDS_P1;SDS_P2;PMS_P1;PMS_P2;Temp;Humidity;BMP_temperature;BMP_pressure;BME280_temperature;BME280_humidity;BME280_pressure;Samples;Min_cycle;Max_cycle;Signal;HPM_P1;HPM_P2
2022/07/17 00:00:42;;;;;;;;;;;19.00;99.90;;;;;;5072956;28;19976;-76
2022/07/17 00:03:14;;;;;;;;;;;19.00;99.90;;;;;;5073076;28;19955;-79
2022/07/17 00:05:40;;;;;;;;;;;19.00;99.90;;;;;;5072208;28;19915;-77
2022/07/17 00:08:06;;;;;;;;;;;19.00;99.90;;;;;;5072896;28;19904;-79
2022/07/17 00:10:33;;;;;;;;;;;19.00;99.90;;;;;;5072944;28;19904;-78
2022/07/17 00:12:58;;;;;;;;;;;19.00;99.90;;;;;;5072413;28;19916;-78
2022/07/17 00:15:24;;;;;;;;;;;18.90;99.90;;;;;;5072874;28;19904;-79
2022/07/17 00:17:50;;;;;;;;;;;18.80;99.90;;;;;;5072360;28;19915;-78
2022/07/17 00:20:15;;;;;;;;;;;18.90;99.90;;;;;;5072434;28;20422;-78
2022/07/17 00:22:42;;;;;;;;;;;18.80;99.90;;;;;;5072394;28;19911;-78
2022/07/17 00:25:09;;;;;;;;;;;18.70;99.90;;;;;;5072970;28;19904;-78
2022/07/17 00:27:35;;;;;;;;;;;18.70;99.90;;;;;;5072638;28;20406;-78
2022/07/17 00:30:00;;;;;;;;;;;18.70;99.90;;;;;;5072329;28;19912;-78
2022/07/17 00:32:26;;;;;;;;;;;18.60;99.90;;;;;;5072864;28;19950;-78
2022/07/17 00:34:52;;;;;;;;;;;18.70;99.90;;;;;;5072114;28;19999;-78
2022/07/17 00:37:17;;;;;;;;;;;18.60;99.90;;;;;;5054916;28;20439;-78
2022/07/17 00:39:43;;;;;;;;;;;18.60;99.90;;;;;;5071959;28;19905;-78
2022/07/17 00:42:15;;;;;;;;;;;18.60;99.90;;;;;;5072545;28;20397;-78
2022/07/17 00:44:41;;;;;;;;;;;18.60;99.90;;;;;;5072206;28;20003;-76
2022/07/17 00:47:18;;;;;;;;;;;18.60;99.90;;;;;;5072383;28;19952;-78
2022/07/17 00:49:44;;;;;;;;;;;18.50;99.90;;;;;;5071861;28;19939;-78
2022/07/17 00:52:10;;;;;;;;;;;18.50;99.90;;;;;;5072427;28;20370;-78
2022/07/17 00:54:39;;;;;;;;;;;18.50;99.90;;;;;;5072729;28;19912;-78
2022/07/17 00:57:06;;;;;;;;;;;18.40;99.90;;;;;;5054442;28;19999;-79
2022/07/17 00:59:33;;;;;;;;;;;18.40;99.90;;;;;;5072591;28;19904;-78
2022/07/17 01:01:58;;;;;;;;;;;18.40;99.90;;;;;;5071999;28;20034;-78
2022/07/17 01:04:24;;;;;;;;;;;18.40;99.90;;;;;;5072588;28;19994;-76
2022/07/17 01:06:50;;;;;;;;;;;18.40;99.90;;;;;;5072056;28;19909;-77
2022/07/17 01:09:15;;;;;;;;;;;18.30;99.90;;;;;;5072520;28;19904;-77
2022/07/17 01:11:41;;;;;;;;;;;18.30;99.90;;;;;;5053896;28;19904;-76
2022/07/17 01:14:07;;;;;;;;;;;18.40;99.90;;;;;;5071647;28;19912;-77
2022/07/17 01:16:33;;;;;;;;;;;18.30;99.90;;;;;;5071839;28;19905;-77
2022/07/17 01:18:59;;;;;;;;;;;18.30;99.90;;;;;;5071449;28;19904;-77
2022/07/17 01:21:25;;;;;;;;;;;18.20;99.90;;;;;;5071965;28;20008;-77
2022/07/17 01:23:50;;;;;;;;;;;18.30;99.90;;;;;;5071255;28;20389;-78
2022/07/17 01:26:16;;;;;;;;;;;18.20;99.90;;;;;;5071938;28;20382;-78
2022/07/17 01:28:41;;;;;;;;;;;18.20;99.90;;;;;;5072091;28;19930;-76
2022/07/17 01:31:07;;;;;;;;;;;18.20;99.90;;;;;;5072279;28;19908;-77
2022/07/17 01:33:33;;;;;;;;;;;18.20;99.90;;;;;;5075913;28;19912;-78
2022/07/17 01:35:58;;;;;;;;;;;18.10;99.90;;;;;;5075063;28;19904;-78
2022/07/17 01:38:24;;;;;;;;;;;18.10;99.90;;;;;;5076023;28;19904;-78
2022/07/17 01:40:51;;;;;;;;;;;18.00;99.90;;;;;;5075142;28;20391;-78
2022/07/17 01:43:17;;;;;;;;;;;18.00;99.90;;;;;;5075917;28;19947;-78
2022/07/17 01:45:42;;;;;;;;;;;17.90;99.90;;;;;;5075657;28;19962;-78
2022/07/17 01:48:08;;;;;;;;;;;17.90;99.90;;;;;;5074976;28;19905;-78
2022/07/17 01:50:34;;;;;;;;;;;17.90;99.90;;;;;;5075314;28;19911;-77
2022/07/17 01:53:00;;;;;;;;;;;17.90;99.90;;;;;;5074862;28;19916;-77
2022/07/17 01:55:25;;;;;;;;;;;17.80;99.90;;;;;;5075958;28;19904;-78
2022/07/17 01:57:51;;;;;;;;;;;17.80;99.90;;;;;;5074711;28;19912;-78
2022/07/17 02:00:17;;;;;;;;;;;17.80;99.90;;;;;;5075610;28;19911;-78
2022/07/17 02:02:44;;;;;;;;;;;17.80;99.90;;;;;;5057453;28;19910;-77
2022/07/17 02:05:10;;;;;;;;;;;17.90;99.90;;;;;;5075332;28;19955;-78
2022/07/17 02:07:39;;;;;;;;;;;18.00;99.90;;;;;;5075108;28;19963;-78
2022/07/17 02:10:05;;;;;;;;;;;18.00;99.90;;;;;;5074498;28;20378;-78
2022/07/17 02:12:31;;;;;;;;;;;18.00;99.90;;;;;;5075122;28;19904;-78
2022/07/17 02:14:56;;;;;;;;;;;18.00;99.90;;;;;;5074340;28;19913;-78
2022/07/17 02:17:22;;;;;;;;;;;18.00;99.90;;;;;;5075168;28;20412;-78
2022/07/17 02:19:47;;;;;;;;;;;18.00;99.90;;;;;;5074676;28;19911;-76
2022/07/17 02:22:13;;;;;;;;;;;18.10;99.90;;;;;;5074750;28;19908;-78
2022/07/17 02:24:38;;;;;;;;;;;18.00;99.90;;;;;;5075020;28;19905;-78
2022/07/17 02:27:04;;;;;;;;;;;18.10;99.90;;;;;;5074387;28;19955;-78
2022/07/17 02:29:30;;;;;;;;;;;18.10;99.90;;;;;;5074639;28;19908;-78
2022/07/17 02:31:55;;;;;;;;;;;18.00;99.90;;;;;;5074086;28;19912;-78
2022/07/17 02:34:21;;;;;;;;;;;18.10;99.90;;;;;;5074665;28;19919;-78
2022/07/17 02:36:46;;;;;;;;;;;18.00;99.90;;;;;;5056601;28;19911;-76
2022/07/17 02:39:12;;;;;;;;;;;18.00;99.90;;;;;;5074156;28;19904;-78
2022/07/17 02:41:37;;;;;;;;;;;18.00;99.90;;;;;;5074073;28;20270;-77
2022/07/17 02:44:03;;;;;;;;;;;18.10;99.90;;;;;;5056254;28;19904;-77
2022/07/17 02:46:29;;;;;;;;;;;18.00;99.90;;;;;;5074341;28;20355;-77
2022/07/17 02:48:54;;;;;;;;;;;18.00;99.90;;;;;;5073660;28;19908;-77
2022/07/17 02:51:20;;;;;;;;;;;17.90;99.90;;;;;;5074477;28;19914;-77
2022/07/17 02:53:45;;;;;;;;;;;17.80;99.90;;;;;;5056309;28;19912;-77
2022/07/17 02:56:11;;;;;;;;;;;17.80;99.90;;;;;;5073873;28;19905;-77
2022/07/17 02:58:36;;;;;;;;;;;17.80;99.90;;;;;;5074360;28;19905;-77
2022/07/17 03:01:02;;;;;;;;;;;17.80;99.90;;;;;;5073792;28;20267;-78
2022/07/17 03:03:28;;;;;;;;;;;17.80;99.90;;;;;;5056422;28;19905;-78
2022/07/17 03:05:53;;;;;;;;;;;17.80;99.90;;;;;;5073610;28;20274;-76
2022/07/17 03:08:19;;;;;;;;;;;17.80;99.90;;;;;;5074453;28;19905;-76
2022/07/17 03:10:44;;;;;;;;;;;17.80;99.90;;;;;;5074048;28;19966;-77
2022/07/17 03:13:10;;;;;;;;;;;17.80;99.90;;;;;;5072992;28;20456;-77
2022/07/17 03:15:36;;;;;;;;;;;17.70;99.90;;;;;;5074045;28;19904;-78
2022/07/17 03:18:01;;;;;;;;;;;17.80;99.90;;;;;;5073720;28;19911;-77
2022/07/17 03:20:27;;;;;;;;;;;17.80;99.90;;;;;;5073999;28;19927;-77
2022/07/17 03:22:52;;;;;;;;;;;17.80;99.90;;;;;;5072894;28;20381;-77
2022/07/17 03:25:18;;;;;;;;;;;17.80;99.90;;;;;;5073845;28;19905;-77
2022/07/17 03:27:43;;;;;;;;;;;17.80;99.90;;;;;;5073816;28;19995;-77
2022/07/17 03:30:09;;;;;;;;;;;17.70;99.90;;;;;;5073046;28;20565;-78
2022/07/17 03:32:35;;;;;;;;;;;17.70;99.90;;;;;;5073445;28;20348;-78
2022/07/17 03:35:01;;;;;;;;;;;17.60;99.90;;;;;;5055035;28;19912;-77
2022/07/17 03:37:28;;;;;;;;;;;17.60;99.90;;;;;;5073596;28;19905;-78
2022/07/17 03:39:53;;;;;;;;;;;17.60;99.90;;;;;;5072839;28;19912;-77
2022/07/17 03:42:19;;;;;;;;;;;17.60;99.90;;;;;;5073496;28;19905;-77
2022/07/17 03:44:45;;;;;;;;;;;17.60;99.90;;;;;;5073118;28;19904;-77
2022/07/17 03:47:10;;;;;;;;;;;17.60;99.90;;;;;;5072476;28;19927;-76
2022/07/17 03:49:36;;;;;;;;;;;17.60;99.90;;;;;;5073303;28;20262;-76
2022/07/17 03:52:01;;;;;;;;;;;17.60;99.90;;;;;;5054967;28;19912;-76
2022/07/17 03:54:27;;;;;;;;;;;17.60;99.90;;;;;;5072444;28;19974;-76
2022/07/17 03:56:53;;;;;;;;;;;17.60;99.90;;;;;;5072683;28;20351;-76
2022/07/17 03:59:18;;;;;;;;;;;17.60;99.90;;;;;;5073143;28;19991;-77
2022/07/17 04:01:44;;;;;;;;;;;17.60;99.90;;;;;;5072893;28;19940;-77
2022/07/17 04:04:09;;;;;;;;;;;17.60;99.90;;;;;;5072605;28;20377;-76
2022/07/17 04:06:35;;;;;;;;;;;17.70;99.90;;;;;;5073189;28;19908;-78
2022/07/17 04:09:00;;;;;;;;;;;17.60;99.90;;;;;;5072569;28;20377;-77
2022/07/17 04:11:26;;;;;;;;;;;17.60;99.90;;;;;;5072848;28;19908;-77
2022/07/17 04:13:52;;;;;;;;;;;17.60;99.90;;;;;;5072546;28;19912;-76
2022/07/17 04:16:17;;;;;;;;;;;17.60;99.90;;;;;;5072373;28;19904;-78
2022/07/17 04:18:43;;;;;;;;;;;17.60;99.90;;;;;;5073044;28;20335;-78
2022/07/17 04:21:09;;;;;;;;;;;17.70;99.90;;;;;;5072428;28;19927;-77
2022/07/17 04:23:35;;;;;;;;;;;17.70;99.90;;;;;;5073055;28;20270;-77
2022/07/17 04:26:01;;;;;;;;;;;17.70;99.90;;;;;;5072364;28;19904;-77
2022/07/17 04:28:27;;;;;;;;;;;17.70;99.90;;;;;;5072861;28;19948;-77
2022/07/17 04:30:52;;;;;;;;;;;17.70;99.90;;;;;;5072815;28;19911;-77
2022/07/17 04:33:18;;;;;;;;;;;17.70;99.90;;;;;;5072033;28;19966;-77
2022/07/17 04:35:44;;;;;;;;;;;17.60;99.90;;;;;;5072577;28;19904;-77
2022/07/17 04:38:10;;;;;;;;;;;17.60;99.90;;;;;;5072267;28;19905;-77
2022/07/17 04:40:37;;;;;;;;;;;17.60;99.90;;;;;;5072703;28;19906;-78
2022/07/17 04:43:03;;;;;;;;;;;17.50;99.90;;;;;;5054245;28;19911;-77
2022/07/17 04:45:28;;;;;;;;;;;17.50;99.90;;;;;;5072595;28;19904;-78
2022/07/17 04:47:54;;;;;;;;;;;17.40;99.90;;;;;;5072963;28;19914;-76
2022/07/17 04:50:21;;;;;;;;;;;17.40;99.90;;;;;;5072131;28;20291;-78
2022/07/17 04:52:46;;;;;;;;;;;17.40;99.90;;;;;;5072593;28;19904;-78
2022/07/17 04:55:12;;;;;;;;;;;17.50;99.90;;;;;;5071995;28;20362;-78
2022/07/17 04:57:38;;;;;;;;;;;17.40;99.90;;;;;;5072639;28;19911;-78
2022/07/17 05:00:04;;;;;;;;;;;17.50;99.90;;;;;;5072029;28;19999;-78
2022/07/17 05:02:30;;;;;;;;;;;17.40;99.90;;;;;;5072532;28;19914;-78
2022/07/17 05:04:55;;;;;;;;;;;17.40;99.90;;;;;;5072857;28;19908;-77
2022/07/17 05:07:21;;;;;;;;;;;17.40;99.90;;;;;;5057924;28;20266;-78
2022/07/17 05:09:46;;;;;;;;;;;17.40;99.90;;;;;;5076443;28;19905;-78
2022/07/17 05:12:12;;;;;;;;;;;17.40;99.90;;;;;;5075564;28;20340;-77
2022/07/17 05:14:38;;;;;;;;;;;17.40;99.90;;;;;;5076165;28;19915;-78
2022/07/17 05:17:03;;;;;;;;;;;17.40;99.90;;;;;;5076022;28;20358;-77
2022/07/17 05:19:29;;;;;;;;;;;17.40;99.90;;;;;;5076206;28;19904;-78
2022/07/17 05:21:54;;;;;;;;;;;17.50;99.90;;;;;;5076233;28;20054;-77
2022/07/17 05:24:20;;;;;;;;;;;17.40;99.90;;;;;;5075459;28;20258;-78
2022/07/17 05:26:45;;;;;;;;;;;17.40;99.90;;;;;;5076226;28;19908;-78
2022/07/17 05:29:11;;;;;;;;;;;17.40;99.90;;;;;;5075475;28;19908;-77
2022/07/17 05:31:37;;;;;;;;;;;17.30;99.90;;;;;;5076342;28;19904;-77
2022/07/17 05:34:02;;;;;;;;;;;17.30;99.90;;;;;;5075320;28;19908;-77
2022/07/17 05:36:28;;;;;;;;;;;17.40;99.90;;;;;;5076106;28;19995;-78
2022/07/17 05:38:53;;;;;;;;;;;17.50;99.90;;;;;;5076176;28;19904;-78
2022/07/17 05:41:19;;;;;;;;;;;17.50;99.90;;;;;;5075228;28;19901;-78
2022/07/17 05:43:45;;;;;;;;;;;17.50;99.90;;;;;;5075824;28;19957;-77
2022/07/17 05:46:10;;;;;;;;;;;17.50;99.90;;;;;;5074811;28;19920;-77
2022/07/17 05:48:36;;;;;;;;;;;17.50;99.90;;;;;;5076224;28;20019;-77
2022/07/17 05:51:02;;;;;;;;;;;17.50;99.90;;;;;;5074808;28;19905;-75
2022/07/17 05:53:28;;;;;;;;;;;17.60;99.90;;;;;;5075170;28;19909;-76
2022/07/17 05:55:53;;;;;;;;;;;17.70;99.90;;;;;;5075357;28;19908;-77
2022/07/17 05:58:19;;;;;;;;;;;17.70;99.90;;;;;;5074899;28;20503;-77
2022/07/17 06:00:44;;;;;;;;;;;17.80;99.90;;;;;;5075477;28;19919;-76
2022/07/17 06:03:10;;;;;;;;;;;17.80;99.90;;;;;;5074872;28;20347;-76
2022/07/17 06:05:36;;;;;;;;;;;17.90;99.90;;;;;;5075366;28;19904;-76
2022/07/17 06:08:01;;;;;;;;;;;17.90;99.90;;;;;;5074776;28;19990;-75
2022/07/17 06:10:27;;;;;;;;;;;17.90;99.90;;;;;;5075034;28;19904;-77
2022/07/17 06:12:53;;;;;;;;;;;17.90;99.90;;;;;;5075178;28;19905;-76
2022/07/17 06:15:19;;;;;;;;;;;18.00;99.90;;;;;;5074453;28;19908;-75
2022/07/17 06:17:45;;;;;;;;;;;18.00;99.90;;;;;;5074280;28;19991;-76
2022/07/17 06:20:11;;;;;;;;;;;18.00;99.90;;;;;;5056649;28;19951;-77
2022/07/17 06:22:37;;;;;;;;;;;18.00;99.90;;;;;;5075065;28;20327;-77
2022/07/17 06:25:03;;;;;;;;;;;18.10;99.90;;;;;;5074781;28;19999;-76
2022/07/17 06:27:28;;;;;;;;;;;18.10;99.90;;;;;;5074812;28;19904;-77
2022/07/17 06:29:54;;;;;;;;;;;18.20;99.90;;;;;;5074688;28;19908;-77
2022/07/17 06:32:19;;;;;;;;;;;18.20;99.90;;;;;;5074340;28;19909;-77
2022/07/17 06:34:45;;;;;;;;;;;18.20;99.90;;;;;;5074522;28;20251;-77
2022/07/17 06:37:10;;;;;;;;;;;18.30;99.90;;;;;;5074137;28;19953;-77
2022/07/17 06:39:36;;;;;;;;;;;18.30;99.90;;;;;;5074728;28;20018;-78
2022/07/17 06:42:02;;;;;;;;;;;18.40;99.90;;;;;;5074385;28;19904;-76
2022/07/17 06:44:27;;;;;;;;;;;18.40;99.90;;;;;;5074143;28;19911;-77
2022/07/17 06:46:53;;;;;;;;;;;18.40;99.90;;;;;;5074421;28;20382;-77
2022/07/17 06:49:18;;;;;;;;;;;18.40;99.90;;;;;;5073963;28;19908;-77
2022/07/17 06:51:45;;;;;;;;;;;18.40;99.90;;;;;;5074487;28;19908;-77
2022/07/17 06:54:14;;;;;;;;;;;18.40;99.90;;;;;;5073817;28;19908;-77
2022/07/17 06:56:40;;;;;;;;;;;18.40;99.90;;;;;;5074270;28;19912;-77
2022/07/17 06:59:07;;;;;;;;;;;18.50;99.90;;;;;;5074103;28;19958;-77
2022/07/17 07:01:33;;;;;;;;;;;18.50;99.90;;;;;;5074258;28;19904;-78
2022/07/17 07:03:59;;;;;;;;;;;18.50;99.90;;;;;;5074236;28;19905;-78
2022/07/17 07:06:24;;;;;;;;;;;18.60;99.90;;;;;;5073367;28;19907;-78
2022/07/17 07:08:50;;;;;;;;;;;18.60;99.90;;;;;;5074399;28;19967;-77
2022/07/17 07:11:15;;;;;;;;;;;18.70;99.90;;;;;;5073528;28;20374;-77
2022/07/17 07:13:41;;;;;;;;;;;18.70;99.90;;;;;;5073525;28;19961;-77
2022/07/17 07:16:06;;;;;;;;;;;18.80;99.90;;;;;;5073052;28;19909;-76
2022/07/17 07:18:32;;;;;;;;;;;18.90;99.90;;;;;;5073894;28;19905;-77
2022/07/17 07:20:58;;;;;;;;;;;19.10;99.90;;;;;;5074017;28;20014;-77
2022/07/17 07:23:24;;;;;;;;;;;19.10;99.90;;;;;;5073328;28;20011;-77
2022/07/17 07:25:50;;;;;;;;;;;19.20;99.90;;;;;;5073714;28;19926;-77
2022/07/17 07:28:16;;;;;;;;;;;19.30;99.90;;;;;;5072987;28;19958;-77
2022/07/17 07:30:41;;;;;;;;;;;19.40;99.90;;;;;;5073289;28;19911;-77
2022/07/17 07:33:07;;;;;;;;;;;19.50;99.90;;;;;;5055108;28;19962;-75
2022/07/17 07:35:32;;;;;;;;;;;19.60;99.90;;;;;;5073288;28;19947;-77
2022/07/17 07:37:58;;;;;;;;;;;19.70;99.90;;;;;;5073468;28;19912;-77
2022/07/17 07:40:24;;;;;;;;;;;19.80;99.90;;;;;;5072769;28;20442;-79
2022/07/17 07:42:49;;;;;;;;;;;19.90;99.90;;;;;;5073709;28;19904;-78
2022/07/17 07:45:15;;;;;;;;;;;19.80;99.90;;;;;;5073207;28;20274;-78
2022/07/17 07:47:42;;;;;;;;;;;19.90;99.90;;;;;;5073454;28;19962;-78
2022/07/17 07:50:08;;;;;;;;;;;19.90;99.90;;;;;;5054936;28;19958;-76
2022/07/17 07:52:34;;;;;;;;;;;20.10;99.90;;;;;;5073397;28;19908;-78
2022/07/17 07:54:59;;;;;;;;;;;20.30;99.90;;;;;;5073096;28;19908;-78
2022/07/17 07:57:25;;;;;;;;;;;20.50;99.90;;;;;;5072713;28;20070;-78
2022/07/17 07:59:50;;;;;;;;;;;20.70;99.90;;;;;;5073239;28;19915;-78
2022/07/17 08:02:16;;;;;;;;;;;20.80;99.90;;;;;;5072632;28;20321;-78
2022/07/17 08:04:41;;;;;;;;;;;20.90;99.90;;;;;;5072703;28;19912;-77
2022/07/17 08:07:07;;;;;;;;;;;20.90;99.90;;;;;;5072708;28;19905;-76
2022/07/17 08:09:32;;;;;;;;;;;21.00;99.90;;;;;;5072800;28;20261;-77
2022/07/17 08:11:58;;;;;;;;;;;21.10;99.90;;;;;;5055053;28;19908;-78
2022/07/17 08:14:24;;;;;;;;;;;21.20;99.90;;;;;;5072401;28;19954;-77
2022/07/17 08:16:49;;;;;;;;;;;21.30;99.90;;;;;;5073158;28;20058;-78
2022/07/17 08:19:15;;;;;;;;;;;21.40;99.90;;;;;;5072318;28;20297;-77
2022/07/17 08:21:41;;;;;;;;;;;21.50;99.90;;;;;;5072959;28;19911;-76
2022/07/17 08:24:06;;;;;;;;;;;21.70;99.90;;;;;;5073013;28;20376;-76
2022/07/17 08:26:32;;;;;;;;;;;21.90;99.90;;;;;;5072104;28;19912;-77
2022/07/17 08:28:57;;;;;;;;;;;22.00;99.90;;;;;;5054948;28;19957;-77
2022/07/17 08:31:23;;;;;;;;;;;22.20;99.90;;;;;;5071994;28;19916;-77
2022/07/17 08:33:48;;;;;;;;;;;22.30;99.90;;;;;;5072308;28;19981;-77
2022/07/17 08:36:14;;;;;;;;;;;22.50;99.90;;;;;;5054141;28;19908;-77
2022/07/17 08:38:39;;;;;;;;;;;22.60;99.90;;;;;;5072762;28;19908;-78
2022/07/17 08:41:05;;;;;;;;;;;22.80;99.90;;;;;;5075730;28;19908;-77
2022/07/17 08:43:31;;;;;;;;;;;22.90;99.90;;;;;;5058403;28;20379;-77
2022/07/17 08:45:56;;;;;;;;;;;23.00;99.90;;;;;;5076396;28;19916;-78
2022/07/17 08:48:24;;;;;;;;;;;22.90;99.90;;;;;;5075938;28;19905;-78
2022/07/17 08:50:50;;;;;;;;;;;22.90;99.90;;;;;;5076834;28;19913;-78
2022/07/17 08:53:15;;;;;;;;;;;23.00;99.90;;;;;;5076108;28;20359;-78
2022/07/17 08:55:41;;;;;;;;;;;23.10;99.90;;;;;;5058743;28;19908;-79
2022/07/17 08:58:07;;;;;;;;;;;23.20;99.90;;;;;;5076726;28;19955;-79
2022/07/17 09:00:32;;;;;;;;;;;23.40;99.90;;;;;;5075985;28;20343;-79
2022/07/17 09:03:03;;;;;;;;;;;23.40;99.90;;;;;;5076584;28;19912;-80
2022/07/17 09:05:30;;;;;;;;;;;23.50;99.90;;;;;;5057794;28;19911;-79
2022/07/17 09:07:56;;;;;;;;;;;23.70;99.90;;;;;;5076551;28;19958;-79
2022/07/17 09:10:36;;;;;;;;;;;23.80;99.90;;;;;;5075797;28;19957;-79
2022/07/17 09:13:13;;;;;;;;;;;23.90;99.90;;;;;;5076027;28;20382;-79
2022/07/17 09:15:39;;;;;;;;;;;24.00;99.90;;;;;;5076518;28;19908;-79
2022/07/17 09:18:04;;;;;;;;;;;23.90;99.90;;;;;;5076514;28;19911;-79
2022/07/17 09:20:30;;;;;;;;;;;23.80;99.90;;;;;;5075313;28;19909;-78
2022/07/17 09:23:00;;;;;;;;;;;23.90;99.90;;;;;;5075701;28;20266;-79
2022/07/17 09:25:32;;;;;;;;;;;23.90;99.90;;;;;;5075477;28;19904;-79
2022/07/17 09:27:59;;;;;;;;;;;24.10;99.90;;;;;;5075744;28;19908;-79
2022/07/17 09:30:26;;;;;;;;;;;24.30;99.90;;;;;;5075429;28;19904;-79
2022/07/17 09:32:54;;;;;;;;;;;24.20;99.90;;;;;;5075742;28;19905;-79
2022/07/17 09:35:21;;;;;;;;;;;24.40;99.90;;;;;;5074934;28;19916;-78
2022/07/17 09:37:46;;;;;;;;;;;24.60;99.90;;;;;;5075854;28;19904;-79
2022/07/17 09:41:09;;;;;;;;;;;24.80;99.90;;;;;;5075861;28;19911;-79
2022/07/17 09:43:01;;;;;;;;;;;24.80;99.90;;;;;;5075248;28;20012;-79
2022/07/17 09:45:27;;;;;;;;;;;24.80;99.90;;;;;;5075084;28;19940;-79
2022/07/17 09:47:53;;;;;;;;;;;24.90;99.90;;;;;;5075923;28;19962;-79
2022/07/17 09:50:19;;;;;;;;;;;25.00;99.90;;;;;;5075317;28;19905;-78
2022/07/17 09:52:44;;;;;;;;;;;25.00;99.90;;;;;;5056492;28;20374;-79
2022/07/17 09:55:10;;;;;;;;;;;25.10;99.90;;;;;;5075177;28;19912;-79
2022/07/17 09:57:39;;;;;;;;;;;25.10;99.90;;;;;;5074961;28;19994;-79
2022/07/17 10:00:16;;;;;;;;;;;25.20;99.90;;;;;;5075584;28;20400;-79
2022/07/17 10:02:42;;;;;;;;;;;25.30;99.90;;;;;;5075550;28;19935;-79
2022/07/17 10:05:12;;;;;;;;;;;25.50;99.90;;;;;;5075330;28;19908;-77
2022/07/17 10:07:41;;;;;;;;;;;25.60;99.90;;;;;;5074492;28;20018;-78
2022/07/17 10:10:10;;;;;;;;;;;25.80;99.90;;;;;;5074773;28;19905;-77
2022/07/17 10:12:40;;;;;;;;;;;25.80;99.90;;;;;;5074527;28;19979;-77
2022/07/17 10:15:07;;;;;;;;;;;25.90;99.90;;;;;;5075054;28;20389;-78
2022/07/17 10:17:33;;;;;;;;;;;26.00;99.90;;;;;;5074552;28;19908;-77
2022/07/17 10:19:58;;;;;;;;;;;25.90;99.90;;;;;;5057053;28;19971;-78
2022/07/17 10:22:24;;;;;;;;;;;25.90;99.90;;;;;;5074152;28;20367;-77
2022/07/17 10:24:54;;;;;;;;;;;26.10;99.90;;;;;;5056937;28;19914;-78
2022/07/17 10:27:26;;;;;;;;;;;26.20;99.90;;;;;;5074341;28;19908;-78
2022/07/17 10:30:18;;;;;;;;;;;26.20;99.90;;;;;;5074814;28;19969;-79
2022/07/17 10:32:50;;;;;;;;;;;26.30;99.90;;;;;;5070446;28;19910;-78
2022/07/17 10:35:16;;;;;;;;;;;26.20;99.90;;;;;;5074633;28;19909;-79
2022/07/17 10:37:41;;;;;;;;;;;26.30;99.90;;;;;;5074137;28;19909;-79
2022/07/17 10:40:10;;;;;;;;;;;26.40;99.90;;;;;;5074426;28;19949;-78
2022/07/17 10:42:46;;;;;;;;;;;26.40;99.90;;;;;;5073953;28;19927;-79
2022/07/17 10:45:13;;;;;;;;;;;26.50;99.90;;;;;;5074389;28;19904;-78
2022/07/17 10:47:54;;;;;;;;;;;26.40;99.90;;;;;;5073395;28;19943;-78
2022/07/17 10:50:25;;;;;;;;;;;26.40;99.90;;;;;;5073724;28;19912;-77
2022/07/17 10:53:01;;;;;;;;;;;26.50;99.90;;;;;;5074202;28;19955;-78
2022/07/17 10:55:28;;;;;;;;;;;26.40;99.90;;;;;;5073756;28;19916;-78
2022/07/17 10:57:54;;;;;;;;;;;26.40;99.90;;;;;;5073989;28;20355;-78
2022/07/17 11:00:19;;;;;;;;;;;26.50;99.90;;;;;;5073748;28;20382;-77
2022/07/17 11:02:45;;;;;;;;;;;26.40;99.90;;;;;;5073924;28;19904;-78
2022/07/17 11:05:12;;;;;;;;;;;26.40;99.90;;;;;;5074173;28;19904;-78
2022/07/17 11:07:50;;;;;;;;;;;26.40;99.90;;;;;;5073347;28;19905;-78
2022/07/17 11:10:16;;;;;;;;;;;26.40;99.90;;;;;;5074130;28;19905;-81
2022/07/17 11:12:42;;;;;;;;;;;26.60;99.90;;;;;;5073385;28;19904;-80
2022/07/17 11:15:07;;;;;;;;;;;26.70;99.90;;;;;;5074106;28;19959;-78
2022/07/17 11:17:33;;;;;;;;;;;26.70;99.90;;;;;;5073386;28;19962;-78
2022/07/17 11:19:59;;;;;;;;;;;26.80;99.90;;;;;;5073751;28;19904;-77
2022/07/17 11:22:26;;;;;;;;;;;26.80;99.90;;;;;;5073250;28;19908;-78
2022/07/17 11:24:52;;;;;;;;;;;26.90;99.90;;;;;;5073739;28;19948;-78
2022/07/17 11:27:18;;;;;;;;;;;27.00;99.90;;;;;;5073500;28;19958;-76
2022/07/17 11:29:43;;;;;;;;;;;27.10;99.90;;;;;;5072841;28;19912;-77
2022/07/17 11:32:09;;;;;;;;;;;27.20;99.90;;;;;;5073501;28;19905;-77
2022/07/17 11:34:34;;;;;;;;;;;27.30;99.90;;;;;;5072928;28;20278;-78
2022/07/17 11:37:01;;;;;;;;;;;27.40;99.90;;;;;;5073382;28;20274;-77
2022/07/17 11:39:36;;;;;;;;;;;27.40;99.90;;;;;;5072917;28;20007;-76
2022/07/17 11:42:02;;;;;;;;;;;27.40;99.90;;;;;;5073653;28;19905;-77
2022/07/17 11:44:27;;;;;;;;;;;27.40;99.90;;;;;;5072587;28;19905;-78
2022/07/17 11:46:53;;;;;;;;;;;27.40;99.90;;;;;;5073272;28;19917;-76
2022/07/17 11:49:26;;;;;;;;;;;27.50;99.90;;;;;;5055342;28;19904;-78
2022/07/17 11:51:52;;;;;;;;;;;27.60;99.90;;;;;;5073618;28;19904;-78
2022/07/17 11:54:17;;;;;;;;;;;27.70;99.90;;;;;;5072907;28;19916;-78
2022/07/17 11:56:51;;;;;;;;;;;27.70;99.90;;;;;;5072401;28;19910;-78
2022/07/17 11:59:23;;;;;;;;;;;27.70;99.90;;;;;;5073163;28;19905;-78
2022/07/17 12:01:48;;;;;;;;;;;27.80;99.90;;;;;;5073050;28;20003;-78
2022/07/17 12:04:15;;;;;;;;;;;27.90;99.90;;;;;;5073197;28;20337;-78
2022/07/17 12:06:41;;;;;;;;;;;28.00;99.90;;;;;;5072284;28;19948;-77
2022/07/17 12:09:07;;;;;;;;;;;28.00;99.90;;;;;;5072565;28;19939;-78
2022/07/17 12:11:33;;;;;;;;;;;28.00;99.90;;;;;;5072260;28;19913;-77
2022/07/17 12:14:06;;;;;;;;;;;28.00;99.90;;;;;;5072638;28;20410;-78
2022/07/17 12:16:34;;;;;;;;;;;28.10;99.90;;;;;;5071919;28;19954;-77
2022/07/17 12:19:00;;;;;;;;;;;28.10;99.90;;;;;;5072964;28;19908;-79
2022/07/17 12:21:26;;;;;;;;;;;28.20;99.90;;;;;;5072174;28;20347;-77
2022/07/17 12:24:00;;;;;;;;;;;28.20;99.90;;;;;;5072971;28;19904;-78
2022/07/17 12:26:26;;;;;;;;;;;28.20;99.90;;;;;;5072483;28;19912;-76
2022/07/17 12:28:51;;;;;;;;;;;28.20;99.90;;;;;;5072828;28;19904;-77
2022/07/17 12:31:17;;;;;;;;;;;28.20;99.90;;;;;;5072897;28;19912;-78
2022/07/17 12:33:43;;;;;;;;;;;28.20;99.90;;;;;;5072288;28;20309;-78
2022/07/17 12:36:09;;;;;;;;;;;28.20;99.90;;;;;;5072835;28;19908;-78
2022/07/17 12:38:35;;;;;;;;;;;28.20;99.90;;;;;;5072076;28;20271;-78
2022/07/17 12:41:00;;;;;;;;;;;28.20;99.90;;;;;;5072748;28;19915;-78
2022/07/17 12:43:26;;;;;;;;;;;28.20;99.90;;;;;;5072268;28;19911;-77
2022/07/17 12:45:52;;;;;;;;;;;28.10;99.90;;;;;;5072348;28;19904;-78
2022/07/17 12:48:18;;;;;;;;;;;28.20;99.90;;;;;;5054959;28;19905;-79
2022/07/17 12:50:43;;;;;;;;;;;28.10;99.90;;;;;;5072124;28;19950;-79
2022/07/17 12:53:09;;;;;;;;;;;28.20;99.90;;;;;;5071833;28;19958;-79
2022/07/17 12:55:36;;;;;;;;;;;28.20;99.90;;;;;;5072004;28;19958;-78
2022/07/17 12:58:02;;;;;;;;;;;28.20;99.90;;;;;;5072558;28;19955;-78
2022/07/17 13:00:28;;;;;;;;;;;28.30;99.90;;;;;;5072262;28;19904;-77
2022/07/17 13:02:54;;;;;;;;;;;28.30;99.90;;;;;;5073267;28;19958;-79
2022/07/17 13:05:20;;;;;;;;;;;28.40;99.90;;;;;;5073435;28;19904;-80
2022/07/17 13:07:45;;;;;;;;;;;28.50;99.90;;;;;;5071971;28;19905;-79
2022/07/17 13:10:11;;;;;;;;;;;28.60;99.90;;;;;;5072522;28;19944;-79
2022/07/17 13:12:36;;;;;;;;;;;28.60;99.90;;;;;;5071708;28;19904;-80
2022/07/17 13:15:02;;;;;;;;;;;28.80;99.90;;;;;;5054530;28;19908;-80
2022/07/17 13:17:28;;;;;;;;;;;28.80;99.90;;;;;;5072422;28;19959;-78
2022/07/17 13:19:54;;;;;;;;;;;28.90;99.90;;;;;;5072649;28;20003;-79
2022/07/17 13:22:19;;;;;;;;;;;29.00;99.90;;;;;;5072261;28;20351;-79
2022/07/17 13:24:45;;;;;;;;;;;28.90;99.90;;;;;;5072087;28;19904;-77
2022/07/17 13:27:10;;;;;;;;;;;29.00;99.90;;;;;;5075131;28;20333;-79
2022/07/17 13:29:36;;;;;;;;;;;29.00;99.90;;;;;;5075612;28;19904;-78
2022/07/17 13:32:03;;;;;;;;;;;29.10;99.90;;;;;;5076125;28;20251;-78
2022/07/17 13:34:28;;;;;;;;;;;29.10;99.90;;;;;;5057986;28;20271;-77
2022/07/17 13:36:54;;;;;;;;;;;29.20;99.90;;;;;;5075875;28;19915;-78
2022/07/17 13:39:19;;;;;;;;;;;29.10;99.90;;;;;;5075559;28;19950;-78
2022/07/17 13:41:45;;;;;;;;;;;29.20;99.90;;;;;;5075722;28;19905;-78
2022/07/17 13:44:11;;;;;;;;;;;29.20;99.90;;;;;;5075195;28;19904;-79
2022/07/17 13:46:37;;;;;;;;;;;29.10;99.90;;;;;;5075518;28;20256;-78
2022/07/17 13:49:03;;;;;;;;;;;29.10;99.60;;;;;;5075796;28;19905;-78
2022/07/17 13:51:29;;;;;;;;;;;29.20;99.90;;;;;;5075048;28;19911;-78
2022/07/17 13:53:58;;;;;;;;;;;29.10;99.90;;;;;;5074468;28;19913;-79
2022/07/17 13:56:24;;;;;;;;;;;29.10;99.90;;;;;;5074921;28;19908;-80
2022/07/17 13:58:49;;;;;;;;;;;29.10;99.90;;;;;;5073802;28;19994;-80
2022/07/17 14:01:15;;;;;;;;;;;29.10;99.90;;;;;;5074960;28;20370;-80
2022/07/17 14:03:41;;;;;;;;;;;29.20;99.90;;;;;;5074157;28;19931;-79
2022/07/17 14:06:07;;;;;;;;;;;29.20;99.20;;;;;;5074745;28;19904;-79
2022/07/17 14:08:33;;;;;;;;;;;29.30;98.30;;;;;;5074194;28;19904;-78
2022/07/17 14:10:59;;;;;;;;;;;29.40;99.70;;;;;;5074603;28;19910;-79